Flight Track Log - Related Links

Times and Time Zones

All times are in EDT time to prevent confusion due to time zone crossing. See the AAL963 flight status page for this flight to view local times or setup timezone preferences in your user account.

Time Position Orientation Groundspeed Altitude Reporting Facility
EDT Latitude Longitude Course Direction KTS MPH feet Rate Location/Type
Wed 09:05:56 PM 32.8410 -97.0510 182° South 201 231 2,400  Level FlightAware ADS-B
Wed 09:06:26 PM 32.8090 -97.0520 182° South 206 237 3,100 1,527 Climbing FlightAware ADS-B
Wed 09:06:51 PM 32.7850 -97.0520 180° South 209 241 3,800 1,636 Climbing FlightAware ADS-B
Wed 09:07:21 PM 32.7560 -97.0530 182° South 208 239 4,600 1,418 Climbing FlightAware ADS-B
Wed 09:07:46 PM 32.7330 -97.0530 180° South 216 249 5,100 764 Climbing FlightAware ADS-B
Wed 09:08:16 PM 32.6990 -97.0540 181° South 255 293 5,300 706 Climbing FlightAware ADS-B
Wed 09:08:37 PM 32.6810 -97.0540 180° South 260 299 5,700 1,579 Climbing FlightAware ADS-B
Wed 09:09:13 PM 32.6280 -97.0540 180° South 274 315 6,800 1,846 Climbing FlightAware ADS-B
Wed 09:09:42 PM 32.5910 -97.0460 170° South 282 325 7,700 1,684 Climbing FlightAware ADS-B
Wed 09:10:10 PM 32.5590 -97.0220 148° Southeast 296 341 8,400 1,333 Climbing FlightAware ADS-B
Wed 09:10:18 PM 32.5510 -97.0160 148° Southeast 298 343 8,500 1,650 Climbing FlightAware ADS-B
Wed 09:10:50 PM 32.5140 -96.9850 145° Southeast 300 345 9,500 1,500 Climbing FlightAware ADS-B
Wed 09:11:26 PM 32.4730 -96.9550 148° Southeast 315 362 10,200 963 Climbing FlightAware ADS-B
Wed 09:12:11 PM 32.4140 -96.9110 148° Southeast 350 403 10,800 907 Climbing FlightAware ADS-B
Wed 09:12:52 PM 32.3520 -96.8650 148° Southeast 375 432 11,500 1,357 Climbing FlightAware ADS-B
Wed 09:13:35 PM 32.2860 -96.8190 149° Southeast 384 442 12,700 1,643 Climbing FlightAware ADS-B
Wed 09:14:16 PM 32.2200 -96.7900 160° South 389 448 13,800 1,829 Climbing FlightAware ADS-B
Wed 09:14:57 PM 32.1480 -96.7630 162° South 392 451 15,200 1,890 Climbing FlightAware ADS-B
Wed 09:15:29 PM 32.0922 -96.7419 162° South 397 457 16,100 1,636 Climbing FlightAware ADS-B
Wed 09:16:03 PM 32.0316 -96.7185 162° South 397 457 17,000 1,569 Climbing FlightAware ADS-B
Wed 09:16:34 PM 31.9752 -96.6970 162° South 412 474 17,800 1,574 Climbing FlightAware ADS-B
Wed 09:17:04 PM 31.9204 -96.6761 162° South 417 480 18,600 1,552 Climbing FlightAware ADS-B
Wed 09:17:32 PM 31.8678 -96.6564 162° South 424 488 19,300 1,424 Climbing FlightAware ADS-B
Wed 09:18:03 PM 31.8099 -96.6328 161° South 431 496 20,000 1,548 Climbing FlightAware ADS-B
Wed 09:18:34 PM 31.7509 -96.6086 161° South 435 501 20,900 1,594 Climbing FlightAware ADS-B
Wed 09:19:07 PM 31.6897 -96.5836 161° South 436 502 21,700 1,455 Climbing FlightAware ADS-B
Wed 09:19:40 PM 31.6247 -96.5571 161° South 441 507 22,500 1,406 Climbing FlightAware ADS-B
Wed 09:20:11 PM 31.5650 -96.5328 161° South 446 513 23,200 1,452 Climbing FlightAware ADS-B
Wed 09:20:42 PM 31.5045 -96.5082 161° South 449 517 24,000 1,292 Climbing FlightAware ADS-B
Wed 09:21:16 PM 31.4375 -96.4832 162° South 455 524 24,600 1,031 Climbing FlightAware ADS-B
Wed 09:21:46 PM 31.3756 -96.4605 163° South 460 529 25,100 989 Climbing FlightAware ADS-B
Wed 09:22:47 PM 31.2514 -96.4143 162° South 472 543 26,100 963 Climbing FlightAware ADS-B
Wed 09:23:07 PM 31.2083 -96.3974 161° South 477 549 26,400 875 Climbing FlightAware ADS-B
Wed 09:23:35 PM 31.1540 -96.3610 146° Southeast 487 560 26,800 769 Climbing FlightAware ADS-B
Wed 09:23:46 PM 31.1354 -96.3425 140° Southeast 490 564 26,900 818 Climbing FlightAware ADS-B
Wed 09:23:57 PM 31.1192 -96.3224 133° Southeast 494 568 27,100 1,024 Climbing FlightAware ADS-B
Wed 09:24:27 PM 31.0779 -96.2565 126° Southeast 498 573 27,600 1,000 Climbing FlightAware ADS-B
Wed 09:24:57 PM 31.0378 -96.1905 125° Southeast 498 573 28,100 1,100 Climbing FlightAware ADS-B
Wed 09:25:27 PM 30.9979 -96.1244 125° Southeast 498 573 28,700 1,082 Climbing FlightAware ADS-B
Wed 09:25:58 PM 30.9573 -96.0578 125° Southeast 500 575 29,200 783 Climbing FlightAware ADS-B
Wed 09:26:59 PM 30.8750 -95.9236 126° Southeast 508 585 29,900 726 Climbing FlightAware ADS-B
Wed 09:28:02 PM 30.7879 -95.7825 126° Southeast 514 592 30,700 683 Climbing FlightAware ADS-B
Wed 09:29:02 PM 30.7036 -95.6462 126° Southeast 522 601 31,300 593 Climbing FlightAware ADS-B
Wed 09:29:33 PM 30.6606 -95.5770 126° Southeast 525 604 31,600 545 Climbing FlightAware ADS-B
Wed 09:30:08 PM 30.6105 -95.4964 126° Southeast 529 609 31,900 554 Climbing FlightAware ADS-B
Wed 09:30:38 PM 30.5673 -95.4270 126° Southeast 532 612 32,200 533 Climbing FlightAware ADS-B
Wed 09:31:38 PM 30.4796 -95.2865 126° Southeast 537 618 32,700 533 Climbing FlightAware ADS-B
Wed 09:32:08 PM 30.4358 -95.2165 126° Southeast 536 617 33,000 146 Climbing FlightAware ADS-B
Wed 09:33:41 PM 30.3009 -95.0015 126° Southeast 533 613 33,000  Level FlightAware ADS-B
Wed 09:34:12 PM 30.2568 -94.9318 126° Southeast 533 613 33,000  Level FlightAware ADS-B
Wed 09:35:12 PM 30.1686 -94.7920 126° Southeast 532 612 33,000  Level FlightAware ADS-B
Wed 09:35:43 PM 30.1245 -94.7226 126° Southeast 532 612 33,000  Level FlightAware ADS-B
Wed 09:36:13 PM 30.0803 -94.6530 126° Southeast 532 612 33,000  Level FlightAware ADS-B
Wed 09:36:43 PM 30.0363 -94.5837 126° Southeast 531 611 33,000  Level FlightAware ADS-B
Wed 09:37:14 PM 29.9922 -94.5143 126° Southeast 532 612 33,000  Level FlightAware ADS-B
Wed 09:37:44 PM 29.9482 -94.4455 126° Southeast 531 611 33,000  Level FlightAware ADS-B
Wed 09:39:16 PM 29.8146 -94.2367 126° Southeast 531 611 33,000  Level FlightAware ADS-B
Wed 09:40:43 PM 29.6845 -94.0437 131° Southeast 528 608 33,000  Level FlightAware ADS-B
Wed 09:41:33 PM 29.5892 -93.9534 142° Southeast 527 606 33,000  Level FlightAware ADS-B
Wed 09:42:34 PM 29.4703 -93.8523 144° Southeast 524 603 33,000  Level FlightAware ADS-B
Wed 09:43:07 PM 29.4064 -93.7982 144° Southeast 524 603 33,000  Level FlightAware ADS-B
Wed 09:43:38 PM 29.3462 -93.7472 144° Southeast 523 602 33,000  Level FlightAware ADS-B
Wed 09:44:09 PM 29.2851 -93.6953 143° Southeast 524 603 33,000  Level FlightAware ADS-B
Wed 09:44:39 PM 29.2265 -93.6456 143° Southeast 524 603 33,000  Level FlightAware ADS-B
Wed 09:45:10 PM 29.1668 -93.5951 144° Southeast 525 604 33,000  Level FlightAware ADS-B
Wed 09:45:41 PM 29.1069 -93.5444 144° Southeast 525 604 33,000  Level FlightAware ADS-B
Wed 09:46:11 PM 29.0469 -93.4937 144° Southeast 525 604 33,000  Level FlightAware ADS-B
Wed 09:46:47 PM 28.9760 -93.4339 144° Southeast 525 604 33,000  Level FlightAware ADS-B
Wed 09:47:18 PM 28.9169 -93.3841 144° Southeast 526 605 33,000  Level FlightAware ADS-B
Wed 09:48:01 PM 28.8511 -93.3278 144° Southeast 526 605 33,000 -58 Level Houston Center
Wed 09:49:02 PM 28.7336 -93.2300 144° Southeast 524 603 32,900 -49 Descending Houston Center
Wed 09:50:03 PM 28.6167 -93.1306 143° Southeast 525 604 32,900  Level Houston Center
Wed 09:51:04 PM 28.4994 -93.0325 144° Southeast 524 603 32,900 49 Level Houston Center
Wed 09:52:06 PM 28.3592 -92.9172 144° Southeast 520 598 33,000 49 Climbing Houston Center
Wed 09:53:07 PM 28.2417 -92.8186 144° Southeast 524 603 33,000 -49 Level Houston Center
Wed 09:54:08 PM 28.1231 -92.7219 144° Southeast 525 604 32,900 -49 Descending Houston Center
Wed 09:55:10 PM 28.0061 -92.6239 143° Southeast 524 603 32,900  Level Houston Center
Wed 09:56:11 PM 27.8883 -92.5283 144° Southeast 522 601 32,900 49 Level Houston Center
Wed 09:57:12 PM 27.7700 -92.4328 144° Southeast 522 601 33,000  Climbing Houston Center
Wed 09:58:13 PM 27.6539 -92.3378 144° Southeast 519 597 32,900 -49 Descending Houston Center
Wed 09:59:15 PM 27.5375 -92.2419 144° Southeast 518 596 32,900 49 Level Houston Center
Wed 10:00:16 PM 27.4200 -92.1472 144° Southeast 518 596 33,000  Climbing Houston Center
Wed 10:01:17 PM 27.2803 -92.0347 144° Southeast 517 595 32,900 -49 Descending Houston Center
Wed 10:02:18 PM 27.1631 -91.9394 144° Southeast 517 595 32,900 49 Level Houston Center
Wed 10:03:20 PM 27.0467 -91.8461 144° Southeast 516 594 33,000  Climbing Houston Center
Wed 10:04:21 PM 26.9294 -91.7528 145° Southeast 518 596 32,900 -49 Descending Houston Center
Wed 10:05:22 PM 26.8281 -91.6694 144° Southeast 517 595 32,900 49 Level Houston Center
Wed 10:06:23 PM 26.6814 -91.5494 144° Southeast 517 595 33,000 24 Climbing Houston Center
Wed 10:08:00 PM 26.5059 -91.4083 144° Southeast  Level FlightAware Approximate
Wed 10:15:00 PM 25.7419 -90.8061 145° Southeast  Level FlightAware Approximate
Wed 10:16:00 PM 25.6324 -90.7208 145° Southeast  Level FlightAware Approximate
Wed 10:17:00 PM 25.5229 -90.6357 145° Southeast  Level FlightAware Approximate
Wed 10:18:00 PM 25.4134 -90.5508 145° Southeast  Level FlightAware Approximate
Wed 10:19:00 PM 25.3038 -90.4660 145° Southeast  Level FlightAware Approximate
Wed 10:20:00 PM 25.1941 -90.3814 145° Southeast  Level FlightAware Approximate
Wed 10:21:00 PM 25.0844 -90.2969 145° Southeast  Level FlightAware Approximate
Wed 10:22:00 PM 24.9747 -90.2126 145° Southeast  Level FlightAware Approximate
Wed 10:23:00 PM 24.8649 -90.1284 145° Southeast  Level FlightAware Approximate
Wed 10:24:00 PM 24.7551 -90.0444 145° Southeast  Level FlightAware Approximate
Wed 10:25:00 PM 24.6452 -89.9605 145° Southeast  Level FlightAware Approximate
Wed 10:26:00 PM 24.5352 -89.8768 145° Southeast  Level FlightAware Approximate
Wed 10:27:00 PM 24.4265 -89.7917 146° Southeast  Level FlightAware Approximate
Wed 10:28:00 PM 24.3153 -89.7102 146° Southeast  Level FlightAware Approximate
Wed 10:29:00 PM 24.2040 -89.6289 146° Southeast  Level FlightAware Approximate
Wed 10:30:00 PM 24.0926 -89.5477 146° Southeast  Level FlightAware Approximate
Wed 10:31:00 PM 23.9828 -89.4643 145° Southeast  Level FlightAware Approximate
Wed 10:32:00 PM 23.8738 -89.3795 145° Southeast  Level FlightAware Approximate
Wed 10:33:00 PM 23.7650 -89.2950 145° Southeast  Level FlightAware Approximate
Wed 10:34:00 PM 23.6551 -89.2122 145° Southeast  Level FlightAware Approximate
Wed 10:35:00 PM 23.5449 -89.1300 146° Southeast  Level FlightAware Approximate
Wed 10:36:00 PM 23.4346 -89.0481 146° Southeast  Level FlightAware Approximate
Wed 10:37:00 PM 23.3242 -88.9664 146° Southeast  Level FlightAware Approximate
Wed 10:38:00 PM 23.2138 -88.8847 146° Southeast  Level FlightAware Approximate
Wed 10:39:00 PM 23.1039 -88.8022 145° Southeast  Level FlightAware Approximate
Wed 10:40:00 PM 22.9946 -88.7191 145° Southeast  Level FlightAware Approximate
Wed 10:41:00 PM 22.8852 -88.6360 145° Southeast  Level FlightAware Approximate
Wed 10:42:00 PM 22.7757 -88.5531 145° Southeast  Level FlightAware Approximate
Wed 10:43:00 PM 22.6655 -88.4715 148° Southeast  Level FlightAware Approximate
Wed 10:44:00 PM 22.5569 -88.3886 136° Southeast  Level FlightAware Approximate
Wed 10:45:00 PM 22.4616 -88.2875 136° Southeast  Level FlightAware Approximate
Wed 10:46:00 PM 22.3662 -88.1865 136° Southeast  Level FlightAware Approximate
Wed 10:47:00 PM 22.2707 -88.0857 136° Southeast  Level FlightAware Approximate
Wed 10:48:00 PM 22.1752 -87.9850 136° Southeast  Level FlightAware Approximate
Wed 10:49:00 PM 22.0796 -87.8844 136° Southeast  Level FlightAware Approximate
Wed 10:50:00 PM 21.9838 -87.7838 136° Southeast  Level FlightAware Approximate
Wed 10:51:00 PM 21.8907 -87.6803 134° Southeast  Level FlightAware Approximate
Wed 10:51:08 PM 21.5840 -87.4100 137° Southeast 498 573 34,000  Level FlightAware ADS-B
Wed 10:52:00 PM 21.7957 -87.5789 137° Southeast  Level FlightAware Approximate
Wed 10:52:05 PM 21.4870 -87.3140 137° Southeast 499 574 34,600  Level FlightAware ADS-B
Wed 10:53:14 PM 21.3810 -87.2080 137° Southeast 501 577 34,700 57 Climbing FlightAware ADS-B
Wed 10:53:50 PM 21.3290 -87.1560 137° Southeast 501 577 34,700  Level FlightAware ADS-B
Wed 10:54:38 PM 21.2600 -87.0870 137° Southeast 501 577 34,700  Level FlightAware ADS-B
Wed 10:55:14 PM 21.2080 -87.0350 137° Southeast 501 577 34,700  Level FlightAware ADS-B
Wed 10:56:16 PM 21.1190 -86.9450 137° Southeast 501 577 34,700  Level FlightAware ADS-B
Wed 10:56:52 PM 21.0670 -86.8940 138° Southeast 501 577 34,700  Level FlightAware ADS-B
Wed 10:57:39 PM 20.9990 -86.8260 137° Southeast 501 577 34,700  Level FlightAware ADS-B
Wed 10:58:16 PM 20.9460 -86.7730 137° Southeast 501 577 34,700  Level FlightAware ADS-B
Wed 10:59:04 PM 20.8760 -86.7040 137° Southeast 501 577 34,700  Level FlightAware ADS-B
Wed 10:59:41 PM 20.8230 -86.6500 136° Southeast 501 577 34,700  Level FlightAware ADS-B
Wed 11:00:27 PM 20.7570 -86.5840 137° Southeast 501 577 34,700  Level FlightAware ADS-B
Wed 11:01:09 PM 20.6960 -86.5240 137° Southeast 501 577 34,700  Level FlightAware ADS-B
Wed 11:01:46 PM 20.6430 -86.4710 137° Southeast 501 577 34,700  Level FlightAware ADS-B
Wed 11:02:34 PM 20.5740 -86.4020 137° Southeast 501 577 34,700 Level FlightAware ADS-B
Wed 11:05:00 PM 20.3676 -86.1295 136° Southeast  Level FlightAware Approximate
Wed 11:06:00 PM 20.2719 -86.0300 136° Southeast  Level FlightAware Approximate
Wed 11:07:00 PM 20.1761 -85.9306 136° Southeast  Level FlightAware Approximate
Wed 11:08:00 PM 20.0802 -85.8313 136° Southeast  Level FlightAware Approximate
Wed 11:09:00 PM 19.9834 -85.7331 137° Southeast  Level FlightAware Approximate
Wed 11:10:00 PM 19.8860 -85.6356 137° Southeast  Level FlightAware Approximate
Wed 11:11:00 PM 19.7886 -85.5382 137° Southeast  Level FlightAware Approximate
Wed 11:12:00 PM 19.6912 -85.4409 137° Southeast  Level FlightAware Approximate
Wed 11:13:00 PM 19.5937 -85.3438 137° Southeast  Level FlightAware Approximate
Wed 11:14:00 PM 19.4960 -85.2468 137° Southeast  Level FlightAware Approximate
Wed 11:15:00 PM 19.3984 -85.1499 137° Southeast  Level FlightAware Approximate
Wed 11:16:00 PM 19.3006 -85.0532 137° Southeast  Level FlightAware Approximate
Wed 11:17:00 PM 19.2029 -84.9566 137° Southeast  Level FlightAware Approximate
Wed 11:18:00 PM 19.1050 -84.8601 137° Southeast  Level FlightAware Approximate
Wed 11:19:00 PM 19.0072 -84.7637 137° Southeast  Level FlightAware Approximate
Wed 11:20:00 PM 18.9093 -84.6674 137° Southeast  Level FlightAware Approximate
Wed 11:21:00 PM 18.8113 -84.5712 137° Southeast  Level FlightAware Approximate
Wed 11:22:00 PM 18.7133 -84.4751 137° Southeast  Level FlightAware Approximate
Wed 11:23:00 PM 18.6152 -84.3792 137° Southeast  Level FlightAware Approximate
Wed 11:24:00 PM 18.5171 -84.2833 137° Southeast  Level FlightAware Approximate
Wed 11:25:00 PM 18.4190 -84.1875 137° Southeast  Level FlightAware Approximate
Wed 11:26:00 PM 18.3209 -84.0918 137° Southeast  Level FlightAware Approximate
Wed 11:27:00 PM 18.2228 -83.9961 137° Southeast  Level FlightAware Approximate
Wed 11:28:00 PM 18.1246 -83.9006 137° Southeast  Level FlightAware Approximate
Wed 11:29:00 PM 18.0263 -83.8051 137° Southeast  Level FlightAware Approximate
Wed 11:30:00 PM 17.9280 -83.7098 137° Southeast  Level FlightAware Approximate
Wed 11:31:00 PM 17.8297 -83.6146 137° Southeast  Level FlightAware Approximate
Wed 11:32:00 PM 17.7313 -83.5195 137° Southeast  Level FlightAware Approximate
Wed 11:33:00 PM 17.6329 -83.4245 137° Southeast  Level FlightAware Approximate
Wed 11:34:00 PM 17.5345 -83.3296 137° Southeast  Level FlightAware Approximate
Wed 11:35:00 PM 17.4359 -83.2348 137° Southeast  Level FlightAware Approximate
Wed 11:36:00 PM 17.3374 -83.1401 137° Southeast  Level FlightAware Approximate
Wed 11:37:00 PM 17.2388 -83.0455 137° Southeast  Level FlightAware Approximate
Wed 11:38:00 PM 17.1401 -82.9510 138° Southeast  Level FlightAware Approximate
Wed 11:39:00 PM 17.0414 -82.8566 138° Southeast  Level FlightAware Approximate
Wed 11:40:00 PM 16.9427 -82.7623 138° Southeast  Level FlightAware Approximate
Wed 11:41:00 PM 16.8439 -82.6681 138° Southeast  Level FlightAware Approximate
Wed 11:42:00 PM 16.7451 -82.5740 138° Southeast  Level FlightAware Approximate
Wed 11:43:00 PM 16.6462 -82.4800 138° Southeast  Level FlightAware Approximate
Wed 11:44:00 PM 16.5473 -82.3861 138° Southeast  Level FlightAware Approximate
Wed 11:45:00 PM 16.4484 -82.2923 138° Southeast  Level FlightAware Approximate
Wed 11:46:00 PM 16.3494 -82.1985 138° Southeast  Level FlightAware Approximate
Wed 11:47:00 PM 16.2504 -82.1049 138° Southeast  Level FlightAware Approximate
Wed 11:48:00 PM 16.1513 -82.0113 138° Southeast  Level FlightAware Approximate
Wed 11:49:00 PM 16.0522 -81.9179 138° Southeast  Level FlightAware Approximate
Wed 11:50:00 PM 15.9531 -81.8245 138° Southeast  Level FlightAware Approximate
Wed 11:51:00 PM 15.8539 -81.7312 138° Southeast  Level FlightAware Approximate
Wed 11:52:00 PM 15.7547 -81.6381 138° Southeast  Level FlightAware Approximate
Wed 11:53:00 PM 15.6555 -81.5450 138° Southeast  Level FlightAware Approximate
Wed 11:54:00 PM 15.5562 -81.4520 138° Southeast  Level FlightAware Approximate
Wed 11:55:00 PM 15.4569 -81.3591 138° Southeast  Level FlightAware Approximate
Wed 11:56:00 PM 15.3575 -81.2663 138° Southeast  Level FlightAware Approximate
Wed 11:57:00 PM 15.2581 -81.1735 138° Southeast  Level FlightAware Approximate
Wed 11:58:00 PM 15.1587 -81.0809 138° Southeast  Level FlightAware Approximate
Wed 11:59:00 PM 15.0592 -80.9883 138° Southeast  Level FlightAware Approximate
Thu 12:00:00 AM 14.9596 -80.8959 138° Southeast  Level FlightAware Approximate
Thu 12:01:00 AM 14.8599 -80.8036 138° Southeast  Level FlightAware Approximate
Thu 12:02:00 AM 14.7602 -80.7115 138° Southeast  Level FlightAware Approximate
Thu 12:03:00 AM 14.6605 -80.6194 138° Southeast  Level FlightAware Approximate
Thu 12:04:00 AM 14.5607 -80.5274 138° Southeast  Level FlightAware Approximate
Thu 12:05:00 AM 14.4609 -80.4354 138° Southeast  Level FlightAware Approximate
Thu 12:06:00 AM 14.3611 -80.3436 138° Southeast  Level FlightAware Approximate
Thu 12:07:00 AM 14.2612 -80.2518 138° Southeast  Level FlightAware Approximate
Thu 12:08:00 AM 14.1613 -80.1602 138° Southeast  Level FlightAware Approximate
Thu 12:09:00 AM 14.0613 -80.0686 138° Southeast  Level FlightAware Approximate
Thu 12:10:00 AM 13.9614 -79.9770 138° Southeast  Level FlightAware Approximate
Thu 12:11:00 AM 13.8613 -79.8856 138° Southeast  Level FlightAware Approximate
Thu 12:12:00 AM 13.7613 -79.7942 138° Southeast  Level FlightAware Approximate
Thu 12:13:00 AM 13.6612 -79.7030 138° Southeast  Level FlightAware Approximate
Thu 12:14:00 AM 13.5611 -79.6118 138° Southeast  Level FlightAware Approximate
Thu 12:15:00 AM 13.4609 -79.5206 138° Southeast  Level FlightAware Approximate
Thu 12:16:00 AM 13.3607 -79.4296 139° Southeast  Level FlightAware Approximate
Thu 12:17:00 AM 13.2605 -79.3386 139° Southeast  Level FlightAware Approximate
Thu 12:18:00 AM 13.1603 -79.2477 139° Southeast  Level FlightAware Approximate
Thu 12:19:00 AM 13.0600 -79.1569 139° Southeast  Level FlightAware Approximate
Thu 12:20:00 AM 12.9597 -79.0661 139° Southeast  Level FlightAware Approximate
Thu 12:21:00 AM 12.8593 -78.9754 139° Southeast  Level FlightAware Approximate
Thu 12:22:00 AM 12.7590 -78.8848 139° Southeast  Level FlightAware Approximate
Thu 12:23:00 AM 12.6586 -78.7943 139° Southeast  Level FlightAware Approximate
Thu 12:24:00 AM 12.5581 -78.7038 139° Southeast  Level FlightAware Approximate
Thu 12:25:00 AM 12.4576 -78.6135 139° Southeast  Level FlightAware Approximate
Thu 12:26:00 AM 12.3571 -78.5231 139° Southeast  Level FlightAware Approximate
Thu 12:27:00 AM 12.2566 -78.4329 139° Southeast  Level FlightAware Approximate
Thu 12:28:00 AM 12.1560 -78.3427 139° Southeast  Level FlightAware Approximate
Thu 12:29:00 AM 12.0555 -78.2526 139° Southeast  Level FlightAware Approximate
Thu 12:30:00 AM 11.9549 -78.1625 139° Southeast  Level FlightAware Approximate
Thu 12:31:00 AM 11.8542 -78.0726 139° Southeast  Level FlightAware Approximate
Thu 12:31:11 AM 11.4140 -77.7690 139° Southeast 495 570 35,000  Level FlightAware ADS-B
Thu 12:31:58 AM 11.3460 -77.7150 142° Southeast 502 578 35,000  Level FlightAware ADS-B
Thu 12:32:00 AM 11.7535 -77.9827 139° Southeast  Level FlightAware Approximate
Thu 12:32:34 AM 11.2900 -77.6700 142° Southeast 502 578 35,000  Level FlightAware ADS-B
Thu 12:33:12 AM 11.2310 -77.6230 142° Southeast 502 578 35,000  Level FlightAware ADS-B
Thu 12:34:02 AM 11.1530 -77.5610 142° Southeast 502 578 35,000  Level FlightAware ADS-B
Thu 12:34:38 AM 11.0970 -77.5170 142° Southeast 502 578 35,000  Level FlightAware ADS-B
Thu 12:35:21 AM 10.9490 -77.4070 144° Southeast 505 581 35,000  Level FlightAware ADS-B
Thu 12:36:06 AM 10.8720 -77.3370 138° Southeast 503 579 35,000  Level FlightAware ADS-B
Thu 12:37:01 AM 10.7780 -77.2480 137° Southeast 502 578 35,000  Level FlightAware ADS-B
Thu 12:37:54 AM 10.6970 -77.1720 137° Southeast 502 578 35,000  Level FlightAware ADS-B
Thu 12:38:39 AM 10.6200 -77.1000 137° Southeast 503 579 35,000  Level FlightAware ADS-B
Thu 12:39:21 AM 10.5420 -77.0280 138° Southeast 501 577 35,000  Level FlightAware ADS-B
Thu 12:40:12 AM 10.4610 -76.9520 137° Southeast 501 577 35,000  Level FlightAware ADS-B
Thu 12:40:57 AM 10.3740 -76.8720 138° Southeast 503 579 35,000  Level FlightAware ADS-B
Thu 12:41:42 AM 10.3000 -76.8040 138° Southeast 503 579 35,000  Level FlightAware ADS-B
Thu 12:42:27 AM 10.2190 -76.7280 137° Southeast 505 581 35,000  Level FlightAware ADS-B
Thu 12:43:07 AM 10.1540 -76.6680 138° Southeast 505 581 35,000  Level FlightAware ADS-B
Thu 12:43:47 AM 10.0790 -76.5990 138° Southeast 504 580 35,000  Level FlightAware ADS-B
Thu 12:44:33 AM 10.0000 -76.5250 137° Southeast 506 582 35,000  Level FlightAware ADS-B
Thu 12:45:12 AM 9.9320 -76.4620 138° Southeast 505 581 35,000  Level FlightAware ADS-B
Thu 12:45:48 AM 9.8770 -76.4120 138° Southeast 503 579 35,000  Level FlightAware ADS-B
Thu 12:46:34 AM 9.7980 -76.3380 137° Southeast 501 577 35,000  Level FlightAware ADS-B
Thu 12:47:20 AM 9.7130 -76.2590 138° Southeast 499 574 35,000  Level FlightAware ADS-B
Thu 12:48:02 AM 9.6510 -76.2000 137° Southeast 491 565 35,000  Level FlightAware ADS-B
Thu 12:48:38 AM 9.6010 -76.1510 136° Southeast 491 565 35,000  Level FlightAware ADS-B
Thu 12:49:26 AM 9.5350 -76.0860 136° Southeast 491 565 35,000  Level FlightAware ADS-B
Thu 12:50:04 AM 9.4820 -76.0340 136° Southeast 491 565 35,000  Level FlightAware ADS-B
Thu 12:50:43 AM 9.4280 -75.9810 136° Southeast 491 565 35,000  Level FlightAware ADS-B
Thu 12:51:31 AM 9.3610 -75.9160 136° Southeast 491 565 35,000  Level FlightAware ADS-B
Thu 12:52:07 AM 9.3110 -75.8670 136° Southeast 491 565 35,000  Level FlightAware ADS-B
Thu 12:52:57 AM 9.2410 -75.7990 136° Southeast 491 565 35,000  Level FlightAware ADS-B
Thu 12:53:33 AM 9.1910 -75.7500 136° Southeast 491 565 35,000  Level FlightAware ADS-B
Thu 12:54:21 AM 9.0160 -75.6170 143° Southeast 486 559 35,000  Level FlightAware ADS-B
Thu 12:55:10 AM 8.9200 -75.5530 147° Southeast 494 568 35,000  Level FlightAware ADS-B
Thu 12:55:55 AM 8.8210 -75.5080 156° South 496 571 35,000  Level FlightAware ADS-B
Thu 12:56:40 AM 8.7260 -75.4670 157° South 498 573 35,000  Level FlightAware ADS-B
Thu 12:57:21 AM 8.6380 -75.4380 162° South 500 575 35,000  Level FlightAware ADS-B
Thu 12:57:58 AM 8.5690 -75.4150 162° South 500 575 35,000  Level FlightAware ADS-B
Thu 12:58:43 AM 8.4550 -75.3770 162° South 500 575 35,000  Level FlightAware ADS-B
Thu 12:59:23 AM 8.3720 -75.3420 157° South 499 574 35,000  Level FlightAware ADS-B
Thu 01:00:03 AM 8.2960 -75.2970 150° Southeast 498 573 35,000  Level FlightAware ADS-B
Thu 01:00:50 AM 8.2070 -75.2250 141° Southeast 498 573 35,000  Level FlightAware ADS-B
Thu 01:01:46 AM 8.1240 -75.1360 133° Southeast 496 571 35,000  Level FlightAware ADS-B
Thu 01:02:23 AM 8.0770 -75.0810 131° Southeast 496 571 35,000  Level FlightAware ADS-B
Thu 01:03:11 AM 8.0160 -75.0100 131° Southeast 496 571 35,000  Level FlightAware ADS-B
Thu 01:03:47 AM 7.9700 -74.9560 131° Southeast 496 571 35,000  Level FlightAware ADS-B
Thu 01:04:35 AM 7.9080 -74.8850 131° Southeast 496 571 35,000  Level FlightAware ADS-B
Thu 01:05:11 AM 7.8620 -74.8320 131° Southeast 496 571 35,000  Level FlightAware ADS-B
Thu 01:06:15 AM 7.7800 -74.7370 131° Southeast 496 571 35,000  Level FlightAware ADS-B
Thu 01:06:49 AM 7.7370 -74.6860 130° Southeast 496 571 35,000  Level FlightAware ADS-B
Thu 01:07:37 AM 7.6750 -74.6150 131° Southeast 496 571 35,000  Level FlightAware ADS-B
Thu 01:08:13 AM 7.6290 -74.5610 131° Southeast 496 571 35,000  Level FlightAware ADS-B
Thu 01:09:01 AM 7.5680 -74.4900 131° Southeast 496 571 35,000  Level FlightAware ADS-B
Thu 01:09:38 AM 7.5200 -74.4350 131° Southeast 496 571 35,000  Level FlightAware ADS-B
Thu 01:10:20 AM 7.4670 -74.3730 131° Southeast 496 571 35,000 16 Level FlightAware ADS-B
Thu 01:13:00 AM 7.2457 -74.0911 128° Southeast  Level FlightAware Approximate
Thu 01:14:00 AM 7.1626 -73.9855 128° Southeast  Level FlightAware Approximate
Thu 01:15:00 AM 7.0795 -73.8799 128° Southeast  Level FlightAware Approximate
Thu 01:16:00 AM 6.9778 -73.7924 152° Southeast  Level Estimated
Thu 01:17:00 AM 6.8604 -73.7280 151° Southeast  Level FlightAware Approximate
Thu 01:18:00 AM 6.7431 -73.6638 151° Southeast  Level FlightAware Approximate
Thu 01:19:00 AM 6.6259 -73.5996 151° Southeast  Level FlightAware Approximate
Thu 01:20:00 AM 6.5086 -73.5354 151° Southeast  Level FlightAware Approximate
Thu 01:21:00 AM 6.3913 -73.4712 151° Southeast  Level FlightAware Approximate
Thu 01:22:00 AM 6.2740 -73.4071 151° Southeast  Level FlightAware Approximate
Thu 01:23:00 AM 6.1567 -73.3430 151° Southeast  Level FlightAware Approximate
Thu 01:24:00 AM 6.0394 -73.2789 151° Southeast  Level FlightAware Approximate
Thu 01:25:00 AM 5.9221 -73.2149 151° Southeast  Level FlightAware Approximate
Thu 01:26:00 AM 5.8048 -73.1509 152° Southeast  Level FlightAware Approximate
Thu 01:27:00 AM 5.6875 -73.0869 152° Southeast  Level FlightAware Approximate
Thu 01:28:00 AM 5.5702 -73.0229 152° Southeast  Level FlightAware Approximate
Thu 01:29:00 AM 5.4528 -72.9590 152° Southeast  Level FlightAware Approximate
Thu 01:30:00 AM 5.3355 -72.8951 152° Southeast  Level FlightAware Approximate
Thu 01:31:00 AM 5.2182 -72.8312 152° Southeast  Level FlightAware Approximate
Thu 01:32:00 AM 5.1008 -72.7673 152° Southeast  Level FlightAware Approximate
Thu 01:33:00 AM 4.9834 -72.7035 152° Southeast  Level FlightAware Approximate
Thu 01:34:00 AM 4.8661 -72.6396 152° Southeast  Level FlightAware Approximate
Thu 01:35:00 AM 4.7487 -72.5759 152° Southeast  Level FlightAware Approximate
Thu 01:36:00 AM 4.6313 -72.5121 152° Southeast  Level FlightAware Approximate
Thu 01:37:00 AM 4.5139 -72.4483 152° Southeast  Level FlightAware Approximate
Thu 01:38:00 AM 4.3966 -72.3846 152° Southeast  Level FlightAware Approximate
Thu 01:39:00 AM 4.2792 -72.3209 152° Southeast  Level FlightAware Approximate
Thu 01:40:00 AM 4.1618 -72.2572 152° Southeast  Level FlightAware Approximate
Thu 01:41:00 AM 4.0444 -72.1935 152° Southeast  Level FlightAware Approximate
Thu 01:42:00 AM 3.9227 -72.1259 145° Southeast  Level FlightAware Approximate
Thu 01:43:00 AM 3.8134 -72.0487 145° Southeast  Level FlightAware Approximate
Thu 01:44:00 AM 3.7041 -71.9716 145° Southeast  Level FlightAware Approximate
Thu 01:45:00 AM 3.5947 -71.8944 145° Southeast  Level FlightAware Approximate
Thu 01:46:00 AM 3.4854 -71.8173 145° Southeast  Level FlightAware Approximate
Thu 01:47:00 AM 3.3760 -71.7402 145° Southeast  Level FlightAware Approximate
Thu 01:48:00 AM 3.2666 -71.6632 145° Southeast  Level FlightAware Approximate
Thu 01:49:00 AM 3.1573 -71.5861 145° Southeast  Level FlightAware Approximate
Thu 01:50:00 AM 3.0479 -71.5091 145° Southeast  Level FlightAware Approximate
Thu 01:51:00 AM 2.9385 -71.4321 145° Southeast  Level FlightAware Approximate
Thu 01:52:00 AM 2.8291 -71.3550 145° Southeast  Level FlightAware Approximate
Thu 01:53:00 AM 2.7197 -71.2781 145° Southeast  Level FlightAware Approximate
Thu 01:54:00 AM 2.6103 -71.2011 145° Southeast  Level FlightAware Approximate
Thu 01:55:00 AM 2.5009 -71.1241 145° Southeast  Level FlightAware Approximate
Thu 01:56:00 AM 2.3915 -71.0471 145° Southeast  Level FlightAware Approximate
Thu 01:57:00 AM 2.2821 -70.9702 145° Southeast  Level FlightAware Approximate
Thu 01:58:00 AM 2.1727 -70.8933 145° Southeast  Level FlightAware Approximate
Thu 01:59:00 AM 2.0633 -70.8164 145° Southeast  Level FlightAware Approximate
Thu 02:00:00 AM 1.9539 -70.7394 145° Southeast  Level FlightAware Approximate
Thu 02:01:00 AM 1.8444 -70.6626 145° Southeast  Level FlightAware Approximate
Thu 02:02:00 AM 1.7350 -70.5857 145° Southeast  Level FlightAware Approximate
Thu 02:03:00 AM 1.6256 -70.5088 145° Southeast  Level FlightAware Approximate
Thu 02:04:00 AM 1.5161 -70.4319 145° Southeast  Level FlightAware Approximate
Thu 02:05:00 AM 1.4067 -70.3550 145° Southeast  Level FlightAware Approximate
Thu 02:06:00 AM 1.2972 -70.2782 145° Southeast  Level FlightAware Approximate
Thu 02:07:00 AM 1.1919 -70.1965 138° Southeast  Level FlightAware Approximate
Thu 02:08:00 AM 1.0922 -70.1077 138° Southeast  Level FlightAware Approximate
Thu 02:09:00 AM 0.9925 -70.0189 138° Southeast  Level FlightAware Approximate
Thu 02:10:00 AM 0.8928 -69.9302 138° Southeast  Level FlightAware Approximate
Thu 02:11:00 AM 0.7931 -69.8414 138° Southeast  Level FlightAware Approximate
Thu 02:12:00 AM 0.6934 -69.7527 138° Southeast  Level FlightAware Approximate
Thu 02:13:00 AM 0.5937 -69.6639 138° Southeast  Level FlightAware Approximate
Thu 02:14:00 AM 0.4940 -69.5752 138° Southeast  Level FlightAware Approximate
Thu 02:15:00 AM 0.3943 -69.4864 138° Southeast  Level FlightAware Approximate
Thu 02:16:00 AM 0.2946 -69.3977 138° Southeast  Level FlightAware Approximate
Thu 02:17:00 AM 0.1949 -69.3089 138° Southeast  Level FlightAware Approximate
Thu 02:18:00 AM 0.0952 -69.2202 138° Southeast  Level FlightAware Approximate
Thu 02:19:00 AM -0.0046 -69.1315 138° Southeast  Level FlightAware Approximate
Thu 02:20:00 AM -0.1043 -69.0427 138° Southeast  Level FlightAware Approximate
Thu 02:21:00 AM -0.2040 -68.9540 138° Southeast  Level FlightAware Approximate
Thu 02:22:00 AM -0.3037 -68.8652 138° Southeast  Level FlightAware Approximate
Thu 02:23:00 AM -0.4034 -68.7765 138° Southeast  Level FlightAware Approximate
Thu 02:24:00 AM -0.5031 -68.6878 138° Southeast  Level FlightAware Approximate
Thu 02:25:00 AM -0.6028 -68.5990 138° Southeast  Level FlightAware Approximate
Thu 02:26:00 AM -0.7025 -68.5103 138° Southeast  Level FlightAware Approximate
Thu 02:27:00 AM -0.8022 -68.4215 138° Southeast  Level FlightAware Approximate
Thu 02:28:00 AM -0.9019 -68.3327 138° Southeast  Level FlightAware Approximate
Thu 02:29:00 AM -1.0016 -68.2440 138° Southeast  Level FlightAware Approximate
Thu 02:30:00 AM -1.1013 -68.1552 138° Southeast  Level FlightAware Approximate
Thu 02:31:00 AM -1.2010 -68.0665 138° Southeast  Level FlightAware Approximate
Thu 02:32:00 AM -1.3007 -67.9777 138° Southeast  Level FlightAware Approximate
Thu 02:33:00 AM -1.4004 -67.8889 138° Southeast  Level FlightAware Approximate
Thu 02:34:00 AM -1.5001 -67.8001 138° Southeast  Level FlightAware Approximate
Thu 02:35:00 AM -1.5998 -67.7113 138° Southeast  Level FlightAware Approximate
Thu 02:36:00 AM -1.6995 -67.6225 138° Southeast  Level FlightAware Approximate
Thu 02:37:00 AM -1.7992 -67.5337 138° Southeast  Level FlightAware Approximate
Thu 02:38:00 AM -1.8988 -67.4448 138° Southeast  Level FlightAware Approximate
Thu 02:39:00 AM -1.9985 -67.3560 138° Southeast  Level FlightAware Approximate
Thu 02:40:00 AM -2.0982 -67.2671 138° Southeast  Level FlightAware Approximate
Thu 02:41:00 AM -2.1978 -67.1783 138° Southeast  Level FlightAware Approximate
Thu 02:42:00 AM -2.2975 -67.0894 138° Southeast  Level FlightAware Approximate
Thu 02:43:00 AM -2.3971 -67.0005 138° Southeast  Level FlightAware Approximate
Thu 02:44:00 AM -2.4968 -66.9116 138° Southeast  Level FlightAware Approximate
Thu 02:45:00 AM -2.5964 -66.8227 138° Southeast  Level FlightAware Approximate
Thu 02:46:00 AM -2.6960 -66.7338 138° Southeast  Level FlightAware Approximate
Thu 02:47:00 AM -2.7957 -66.6448 138° Southeast  Level FlightAware Approximate
Thu 02:48:00 AM -2.8953 -66.5559 138° Southeast  Level FlightAware Approximate
Thu 02:49:00 AM -2.9949 -66.4669 138° Southeast  Level FlightAware Approximate
Thu 02:50:00 AM -3.0945 -66.3779 138° Southeast  Level FlightAware Approximate
Thu 02:51:00 AM -3.1941 -66.2889 138° Southeast  Level FlightAware Approximate
Thu 02:52:00 AM -3.2937 -66.1999 138° Southeast  Level FlightAware Approximate
Thu 02:53:00 AM -3.3933 -66.1108 138° Southeast  Level FlightAware Approximate
Thu 02:54:00 AM -3.4928 -66.0218 138° Southeast  Level FlightAware Approximate
Thu 02:55:00 AM -3.5924 -65.9327 138° Southeast  Level FlightAware Approximate
Thu 02:56:00 AM -3.6919 -65.8436 138° Southeast  Level FlightAware Approximate
Thu 02:57:00 AM -3.7915 -65.7545 138° Southeast  Level FlightAware Approximate
Thu 02:58:00 AM -3.8910 -65.6654 138° Southeast  Level FlightAware Approximate
Thu 02:59:00 AM -3.9906 -65.5762 138° Southeast  Level FlightAware Approximate
Thu 03:00:00 AM -4.0901 -65.4870 138° Southeast  Level FlightAware Approximate
Thu 03:01:00 AM -4.1896 -65.3978 138° Southeast  Level FlightAware Approximate
Thu 03:02:00 AM -4.2891 -65.3086 138° Southeast  Level FlightAware Approximate
Thu 03:03:00 AM -4.3886 -65.2193 138° Southeast  Level FlightAware Approximate
Thu 03:04:00 AM -4.4881 -65.1301 138° Southeast  Level FlightAware Approximate
Thu 03:05:00 AM -4.5875 -65.0408 138° Southeast  Level FlightAware Approximate
Thu 03:06:00 AM -4.6870 -64.9514 138° Southeast  Level FlightAware Approximate
Thu 03:07:00 AM -4.7864 -64.8621 138° Southeast  Level FlightAware Approximate
Thu 03:08:00 AM -4.8858 -64.7727 138° Southeast  Level FlightAware Approximate
Thu 03:09:00 AM -4.9853 -64.6833 138° Southeast  Level FlightAware Approximate
Thu 03:10:00 AM -5.0847 -64.5939 138° Southeast  Level FlightAware Approximate
Thu 03:11:00 AM -5.1841 -64.5044 138° Southeast  Level FlightAware Approximate
Thu 03:12:00 AM -5.2835 -64.4150 138° Southeast  Level FlightAware Approximate
Thu 03:13:00 AM -5.3828 -64.3255 138° Southeast  Level FlightAware Approximate
Thu 03:14:00 AM -5.4822 -64.2359 138° Southeast  Level FlightAware Approximate
Thu 03:15:00 AM -5.5815 -64.1463 138° Southeast  Level FlightAware Approximate
Thu 03:16:00 AM -5.6809 -64.0567 138° Southeast  Level FlightAware Approximate
Thu 03:17:00 AM -5.7802 -63.9671 138° Southeast  Level FlightAware Approximate
Thu 03:18:00 AM -5.8795 -63.8775 138° Southeast  Level FlightAware Approximate
Thu 03:19:00 AM -5.9788 -63.7878 138° Southeast  Level FlightAware Approximate
Thu 03:20:00 AM -6.0780 -63.6980 138° Southeast  Level FlightAware Approximate
Thu 03:21:00 AM -6.1773 -63.6083 138° Southeast  Level FlightAware Approximate
Thu 03:22:00 AM -6.2765 -63.5185 138° Southeast  Level FlightAware Approximate
Thu 03:23:00 AM -6.3758 -63.4287 138° Southeast  Level FlightAware Approximate
Thu 03:24:00 AM -6.4750 -63.3388 138° Southeast  Level FlightAware Approximate
Thu 03:25:00 AM -6.5742 -63.2489 138° Southeast  Level FlightAware Approximate
Thu 03:26:00 AM -6.6734 -63.1590 138° Southeast  Level FlightAware Approximate
Thu 03:27:00 AM -6.7725 -63.0690 138° Southeast  Level FlightAware Approximate
Thu 03:28:00 AM -6.8717 -62.9790 138° Southeast  Level FlightAware Approximate
Thu 03:29:00 AM -6.9708 -62.8890 138° Southeast  Level FlightAware Approximate
Thu 03:30:00 AM -7.0699 -62.7989 138° Southeast  Level FlightAware Approximate
Thu 03:31:00 AM -7.1690 -62.7088 138° Southeast  Level FlightAware Approximate
Thu 03:32:00 AM -7.2681 -62.6186 138° Southeast  Level FlightAware Approximate
Thu 03:33:00 AM -7.3671 -62.5284 138° Southeast  Level FlightAware Approximate
Thu 03:34:00 AM -7.4662 -62.4381 138° Southeast  Level FlightAware Approximate
Thu 03:35:00 AM -7.5652 -62.3479 138° Southeast  Level FlightAware Approximate
Thu 03:36:00 AM -7.6642 -62.2575 138° Southeast  Level FlightAware Approximate
Thu 03:37:00 AM -7.7632 -62.1672 138° Southeast  Level FlightAware Approximate
Thu 03:38:00 AM -7.8622 -62.0768 138° Southeast  Level FlightAware Approximate
Thu 03:39:00 AM -7.9611 -61.9863 138° Southeast  Level FlightAware Approximate
Thu 03:40:00 AM -8.0601 -61.8958 138° Southeast  Level FlightAware Approximate
Thu 03:41:00 AM -8.1590 -61.8053 138° Southeast  Level FlightAware Approximate
Thu 03:42:00 AM -8.2579 -61.7147 138° Southeast  Level FlightAware Approximate
Thu 03:43:00 AM -8.3567 -61.6241 138° Southeast  Level FlightAware Approximate
Thu 03:44:00 AM -8.4556 -61.5334 138° Southeast  Level FlightAware Approximate
Thu 03:45:00 AM -8.5544 -61.4427 138° Southeast  Level FlightAware Approximate
Thu 03:46:00 AM -8.6532 -61.3519 138° Southeast  Level FlightAware Approximate
Thu 03:47:00 AM -8.7520 -61.2611 138° Southeast  Level FlightAware Approximate
Thu 03:48:00 AM -8.8509 -61.1701 138° Southeast  Level FlightAware Approximate
Thu 03:49:00 AM -8.9499 -61.0790 138° Southeast  Level FlightAware Approximate
Thu 03:50:00 AM -9.0488 -60.9879 138° Southeast  Level FlightAware Approximate
Thu 03:51:00 AM -9.1476 -60.8967 138° Southeast  Level FlightAware Approximate
Thu 03:52:00 AM -9.2465 -60.8054 138° Southeast  Level FlightAware Approximate
Thu 03:53:00 AM -9.3453 -60.7142 138° Southeast  Level FlightAware Approximate
Thu 03:54:00 AM -9.4441 -60.6228 138° Southeast  Level FlightAware Approximate
Thu 03:55:00 AM -9.5429 -60.5314 138° Southeast  Level FlightAware Approximate
Thu 03:56:00 AM -9.6417 -60.4400 138° Southeast  Level FlightAware Approximate
Thu 03:57:00 AM -9.7404 -60.3485 138° Southeast  Level FlightAware Approximate
Thu 03:58:00 AM -9.8391 -60.2570 138° Southeast  Level FlightAware Approximate
Thu 03:59:00 AM -9.9378 -60.1654 138° Southeast  Level FlightAware Approximate
Thu 04:00:00 AM -10.0364 -60.0737 138° Southeast  Level FlightAware Approximate
Thu 04:01:00 AM -10.1351 -59.9820 138° Southeast  Level FlightAware Approximate
Thu 04:02:00 AM -10.2337 -59.8903 138° Southeast  Level FlightAware Approximate
Thu 04:03:00 AM -10.3322 -59.7984 138° Southeast  Level FlightAware Approximate
Thu 04:04:00 AM -10.4310 -59.7064 137° Southeast  Level FlightAware Approximate
Thu 04:05:00 AM -10.5297 -59.6143 137° Southeast  Level FlightAware Approximate
Thu 04:06:00 AM -10.6284 -59.5221 137° Southeast  Level FlightAware Approximate
Thu 04:07:00 AM -10.7270 -59.4299 137° Southeast  Level FlightAware Approximate
Thu 04:08:00 AM -10.8257 -59.3376 137° Southeast  Level FlightAware Approximate
Thu 04:09:00 AM -10.9242 -59.2453 137° Southeast  Level FlightAware Approximate
Thu 04:10:00 AM -11.0228 -59.1529 137° Southeast  Level FlightAware Approximate
Thu 04:11:00 AM -11.1214 -59.0604 137° Southeast  Level FlightAware Approximate
Thu 04:12:00 AM -11.2199 -58.9679 137° Southeast  Level FlightAware Approximate
Thu 04:13:00 AM -11.3184 -58.8753 137° Southeast  Level FlightAware Approximate
Thu 04:14:00 AM -11.4168 -58.7826 137° Southeast  Level FlightAware Approximate
Thu 04:15:00 AM -11.5153 -58.6899 137° Southeast  Level FlightAware Approximate
Thu 04:16:00 AM -11.6137 -58.5971 137° Southeast  Level FlightAware Approximate
Thu 04:17:00 AM -11.7120 -58.5043 137° Southeast  Level FlightAware Approximate
Thu 04:18:00 AM -11.8104 -58.4114 137° Southeast  Level FlightAware Approximate
Thu 04:19:00 AM -11.9087 -58.3184 137° Southeast  Level FlightAware Approximate
Thu 04:20:00 AM -12.0070 -58.2253 137° Southeast  Level FlightAware Approximate
Thu 04:21:00 AM -12.1052 -58.1322 137° Southeast  Level FlightAware Approximate
Thu 04:22:00 AM -12.2034 -58.0390 137° Southeast  Level FlightAware Approximate
Thu 04:23:00 AM -12.3016 -57.9458 137° Southeast  Level FlightAware Approximate
Thu 04:24:00 AM -12.3998 -57.8524 137° Southeast  Level FlightAware Approximate
Thu 04:25:00 AM -12.4979 -57.7590 137° Southeast  Level FlightAware Approximate
Thu 04:26:00 AM -12.5960 -57.6656 137° Southeast  Level FlightAware Approximate
Thu 04:27:00 AM -12.6940 -57.5720 137° Southeast  Level FlightAware Approximate
Thu 04:28:00 AM -12.7921 -57.4784 137° Southeast  Level FlightAware Approximate
Thu 04:29:00 AM -12.8900 -57.3847 137° Southeast  Level FlightAware Approximate
Thu 04:30:00 AM -12.9880 -57.2910 137° Southeast  Level FlightAware Approximate
Thu 04:31:00 AM -13.0859 -57.1972 137° Southeast  Level FlightAware Approximate
Thu 04:32:00 AM -13.1838 -57.1032 137° Southeast  Level FlightAware Approximate
Thu 04:33:00 AM -13.2817 -57.0093 137° Southeast  Level FlightAware Approximate
Thu 04:34:00 AM -13.3795 -56.9152 137° Southeast  Level FlightAware Approximate
Thu 04:35:00 AM -13.4773 -56.8211 137° Southeast  Level FlightAware Approximate
Thu 04:36:00 AM -13.5750 -56.7269 137° Southeast  Level FlightAware Approximate
Thu 04:37:00 AM -13.6728 -56.6326 137° Southeast  Level FlightAware Approximate
Thu 04:38:00 AM -13.7704 -56.5382 137° Southeast  Level FlightAware Approximate
Thu 04:39:00 AM -13.8681 -56.4438 137° Southeast  Level FlightAware Approximate
Thu 04:40:00 AM -13.9657 -56.3492 137° Southeast  Level FlightAware Approximate
Thu 04:41:00 AM -14.0633 -56.2546 137° Southeast  Level FlightAware Approximate
Thu 04:42:00 AM -14.1608 -56.1600 137° Southeast  Level FlightAware Approximate
Thu 04:43:00 AM -14.2583 -56.0652 137° Southeast  Level FlightAware Approximate
Thu 04:44:00 AM -14.3558 -55.9703 137° Southeast  Level FlightAware Approximate
Thu 04:45:00 AM -14.4532 -55.8754 137° Southeast  Level FlightAware Approximate
Thu 04:46:00 AM -14.5506 -55.7804 137° Southeast  Level FlightAware Approximate
Thu 04:47:00 AM -14.6479 -55.6853 137° Southeast  Level FlightAware Approximate
Thu 04:48:00 AM -14.7452 -55.5901 137° Southeast  Level FlightAware Approximate
Thu 04:49:00 AM -14.8425 -55.4949 137° Southeast  Level FlightAware Approximate
Thu 04:50:00 AM -14.9397 -55.3995 137° Southeast  Level FlightAware Approximate
Thu 04:51:00 AM -15.0369 -55.3041 137° Southeast  Level FlightAware Approximate
Thu 04:52:00 AM -15.1341 -55.2085 136° Southeast  Level FlightAware Approximate
Thu 04:53:00 AM -15.2312 -55.1129 136° Southeast  Level FlightAware Approximate
Thu 04:54:00 AM -15.3283 -55.0172 136° Southeast  Level FlightAware Approximate
Thu 04:55:00 AM -15.4253 -54.9214 136° Southeast  Level FlightAware Approximate
Thu 04:56:00 AM -15.5223 -54.8256 136° Southeast  Level FlightAware Approximate
Thu 04:57:00 AM -15.6192 -54.7296 136° Southeast  Level FlightAware Approximate
Thu 04:58:00 AM -15.7161 -54.6335 136° Southeast  Level FlightAware Approximate
Thu 04:59:00 AM -15.8130 -54.5374 136° Southeast  Level FlightAware Approximate
Thu 05:00:00 AM -15.9098 -54.4411 136° Southeast  Level FlightAware Approximate
Thu 05:01:00 AM -16.0066 -54.3448 136° Southeast  Level FlightAware Approximate
Thu 05:02:00 AM -16.1033 -54.2483 136° Southeast  Level FlightAware Approximate
Thu 05:03:00 AM -16.2000 -54.1518 136° Southeast  Level FlightAware Approximate
Thu 05:04:00 AM -16.2967 -54.0552 136° Southeast  Level FlightAware Approximate
Thu 05:05:00 AM -16.3933 -53.9585 136° Southeast  Level FlightAware Approximate
Thu 05:06:00 AM -16.4898 -53.8617 136° Southeast  Level FlightAware Approximate
Thu 05:07:00 AM -16.5863 -53.7648 136° Southeast  Level FlightAware Approximate
Thu 05:08:00 AM -16.6828 -53.6678 136° Southeast  Level FlightAware Approximate
Thu 05:09:00 AM -16.7792 -53.5706 136° Southeast  Level FlightAware Approximate
Thu 05:10:00 AM -16.8756 -53.4734 136° Southeast  Level FlightAware Approximate
Thu 05:11:00 AM -16.9720 -53.3761 136° Southeast  Level FlightAware Approximate
Thu 05:12:00 AM -17.0682 -53.2788 136° Southeast  Level FlightAware Approximate
Thu 05:13:00 AM -17.1645 -53.1813 136° Southeast  Level FlightAware Approximate
Thu 05:14:00 AM -17.2607 -53.0836 136° Southeast  Level FlightAware Approximate
Thu 05:15:00 AM -17.3568 -52.9860 136° Southeast  Level FlightAware Approximate
Thu 05:16:00 AM -17.4529 -52.8881 136° Southeast  Level FlightAware Approximate
Thu 05:17:00 AM -17.5490 -52.7902 136° Southeast  Level FlightAware Approximate
Thu 05:18:00 AM -17.6450 -52.6922 136° Southeast  Level FlightAware Approximate
Thu 05:19:00 AM -17.7409 -52.5941 136° Southeast  Level FlightAware Approximate
Thu 05:20:00 AM -17.8368 -52.4959 136° Southeast  Level FlightAware Approximate
Thu 05:21:00 AM -17.9327 -52.3975 136° Southeast  Level FlightAware Approximate
Thu 05:22:00 AM -18.0285 -52.2991 136° Southeast  Level FlightAware Approximate
Thu 05:23:00 AM -18.1243 -52.2006 136° Southeast  Level FlightAware Approximate
Thu 05:24:00 AM -18.2200 -52.1019 136° Southeast  Level FlightAware Approximate
Thu 05:25:00 AM -18.3156 -52.0032 136° Southeast  Level FlightAware Approximate
Thu 05:26:00 AM -18.4112 -51.9043 136° Southeast  Level FlightAware Approximate
Thu 05:26:26 AM -19.0240 -50.6450 136° Southeast 521 600 39,000  Level FlightAware ADS-B
Thu 05:27:00 AM -18.5068 -51.8053 136° Southeast  Level FlightAware Approximate
Thu 05:27:09 AM -19.0950 -50.5670 134° Southeast 521 600 39,000  Level FlightAware ADS-B
Thu 05:27:52 AM -19.1710 -50.4840 134° Southeast 522 601 39,000  Level FlightAware ADS-B
Thu 05:28:32 AM -19.2380 -50.4100 134° Southeast 522 601 39,000  Level FlightAware ADS-B
Thu 05:29:12 AM -19.3030 -50.3390 134° Southeast 521 600 39,000  Level FlightAware ADS-B
Thu 05:29:56 AM -19.3790 -50.2560 134° Southeast 521 600 39,000  Level FlightAware ADS-B
Thu 05:30:38 AM -19.4490 -50.1780 134° Southeast 521 600 39,000  Level FlightAware ADS-B
Thu 05:31:18 AM -19.5160 -50.1060 135° Southeast 521 600 39,000  Level FlightAware ADS-B
Thu 05:32:04 AM -19.5930 -50.0210 134° Southeast 521 600 39,000  Level FlightAware ADS-B
Thu 05:32:46 AM -19.6640 -49.9430 134° Southeast 522 601 39,000  Level FlightAware ADS-B
Thu 05:33:26 AM -19.7300 -49.8700 134° Southeast 522 601 39,000  Level FlightAware ADS-B
Thu 05:34:06 AM -19.7980 -49.7960 134° Southeast 522 601 39,000  Level FlightAware ADS-B
Thu 05:34:46 AM -19.8660 -49.7220 134° Southeast 522 601 39,000  Level FlightAware ADS-B
Thu 05:35:16 AM -19.9150 -49.6680 134° Southeast 522 601 39,000  Level FlightAware ADS-B
Thu 05:35:54 AM -19.9800 -49.5970 134° Southeast 521 600 39,000  Level FlightAware ADS-B
Thu 05:36:37 AM -20.0450 -49.5260 134° Southeast 522 601 39,000  Level FlightAware ADS-B
Thu 05:37:18 AM -20.1220 -49.4410 134° Southeast 522 601 39,000  Level FlightAware ADS-B
Thu 05:38:04 AM -20.1990 -49.3560 134° Southeast 523 602 39,000  Level FlightAware ADS-B
Thu 05:38:42 AM -20.2630 -49.2850 134° Southeast 524 603 39,000  Level FlightAware ADS-B
Thu 05:39:28 AM -20.3400 -49.2010 134° Southeast 525 604 39,000  Level FlightAware ADS-B
Thu 05:40:08 AM -20.4070 -49.1260 134° Southeast 525 604 39,000  Level FlightAware ADS-B
Thu 05:40:48 AM -20.4760 -49.0500 134° Southeast 526 605 39,000  Level FlightAware ADS-B
Thu 05:41:30 AM -20.5460 -48.9720 134° Southeast 526 605 39,000  Level FlightAware ADS-B
Thu 05:42:14 AM -20.6200 -48.8890 134° Southeast 525 604 39,000  Level FlightAware ADS-B
Thu 05:42:44 AM -20.6700 -48.8340 134° Southeast 525 604 39,000  Level FlightAware ADS-B
Thu 05:43:22 AM -20.7340 -48.7620 134° Southeast 526 605 39,000  Level FlightAware ADS-B
Thu 05:44:04 AM -20.8060 -48.6820 134° Southeast 526 605 39,000  Level FlightAware ADS-B
Thu 05:44:48 AM -20.8790 -48.6010 134° Southeast 527 606 39,000  Level FlightAware ADS-B
Thu 05:45:28 AM -20.9460 -48.5250 133° Southeast 526 605 39,000  Level FlightAware ADS-B
Thu 05:46:12 AM -21.0270 -48.4530 140° Southeast 522 601 39,000  Level FlightAware ADS-B
Thu 05:46:48 AM -21.0950 -48.3940 141° Southeast 522 601 39,000  Level FlightAware ADS-B
Thu 05:47:32 AM -21.1780 -48.3220 141° Southeast 522 601 39,000  Level FlightAware ADS-B
Thu 05:48:18 AM -21.2610 -48.2500 141° Southeast 522 601 39,000  Level FlightAware ADS-B
Thu 05:48:58 AM -21.3370 -48.1850 141° Southeast 522 601 39,000  Level FlightAware ADS-B
Thu 05:49:40 AM -21.4040 -48.1260 141° Southeast 523 602 39,000  Level FlightAware ADS-B
Thu 05:50:24 AM -21.5020 -48.0410 141° Southeast 522 601 39,000  Level FlightAware ADS-B
Thu 05:51:04 AM -21.5770 -47.9760 141° Southeast 522 601 39,000 -585 Level FlightAware ADS-B
Thu 05:51:46 AM -21.6540 -47.9080 141° Southeast 518 596 38,200 -1,902 Descending FlightAware ADS-B
Thu 05:52:26 AM -21.7300 -47.8420 141° Southeast 521 600 36,400 -2,643 Descending FlightAware ADS-B
Thu 05:53:10 AM -21.8110 -47.7710 141° Southeast 523 602 34,500 -2,386 Descending FlightAware ADS-B
Thu 05:53:54 AM -21.8940 -47.6990 141° Southeast 515 593 32,900 -2,114 Descending FlightAware ADS-B
Thu 05:54:38 AM -21.9750 -47.6280 141° Southeast 502 578 31,400 -2,000 Descending FlightAware ADS-B
Thu 05:55:18 AM -22.0470 -47.5650 141° Southeast 492 566 30,100 -1,929 Descending FlightAware ADS-B
Thu 05:56:02 AM -22.1230 -47.4980 141° Southeast 480 552 28,700 -1,857 Descending FlightAware ADS-B
Thu 05:56:42 AM -22.1920 -47.4380 141° Southeast 469 540 27,500 -1,875 Descending FlightAware ADS-B
Thu 05:57:22 AM -22.2590 -47.3780 140° Southeast 461 531 26,200 -1,857 Descending FlightAware ADS-B
Thu 05:58:06 AM -22.3310 -47.3160 141° Southeast 451 519 24,900 -1,786 Descending FlightAware ADS-B
Thu 05:58:46 AM -22.3950 -47.2590 141° Southeast 444 511 23,700 -1,835 Descending FlightAware ADS-B
Thu 05:59:31 AM -22.4640 -47.1970 140° Southeast 436 502 22,300 -1,786 Descending FlightAware ADS-B
Thu 06:00:10 AM -22.5240 -47.1440 141° Southeast 428 493 21,200 -1,778 Descending FlightAware ADS-B
Thu 06:00:52 AM -22.5930 -47.0930 146° Southeast 417 480 19,900 -1,800 Descending FlightAware ADS-B
Thu 06:01:30 AM -22.6590 -47.0630 157° South 409 471 18,800 -1,765 Descending FlightAware ADS-B
Thu 06:02:17 AM -22.7410 -47.0290 159° South 402 463 17,400 -1,807 Descending FlightAware ADS-B
Thu 06:02:53 AM -22.8040 -47.0030 159° South 397 457 16,300 -1,875 Descending FlightAware ADS-B
Thu 06:03:37 AM -22.8800 -46.9710 159° South 392 451 14,900 -2,000 Descending FlightAware ADS-B
Thu 06:04:17 AM -22.9470 -46.9420 158° South 392 451 13,500 -2,118 Descending FlightAware ADS-B
Thu 06:05:02 AM -23.0220 -46.9110 159° South 374 430 11,900 -1,976 Descending FlightAware ADS-B
Thu 06:05:42 AM -23.0790 -46.8870 159° South 334 384 10,700 -1,663 Descending FlightAware ADS-B
Thu 06:06:25 AM -23.1450 -46.8590 159° South 319 367 9,600 -1,437 Descending FlightAware ADS-B
Thu 06:06:53 AM -23.1820 -46.8440 160° South 308 354 9,000 -1,269 Descending FlightAware ADS-B
Thu 06:07:17 AM -23.2140 -46.8300 158° South 299 344 8,500 -1,269 Descending FlightAware ADS-B
Thu 06:07:45 AM -23.2500 -46.8150 159° South 296 341 7,900 -828 Descending FlightAware ADS-B
Thu 06:08:15 AM -23.2870 -46.7990 158° South 278 320 7,700 -517 Descending FlightAware ADS-B
Thu 06:08:43 AM -23.3200 -46.7850 159° South 265 305 7,400 -536 Descending FlightAware ADS-B
Thu 06:09:11 AM -23.3500 -46.7720 158° South 245 282 7,200 -429 Descending FlightAware ADS-B
Thu 06:09:39 AM -23.3760 -46.7580 154° Southeast 237 273 7,000 -808 Descending FlightAware ADS-B
Thu 06:10:03 AM -23.3990 -46.7380 141° Southeast 240 276 6,500 -1,364 Descending FlightAware ADS-B
Thu 06:10:23 AM -23.4160 -46.7220 139° Southeast 244 281 6,000 -1,250 Descending FlightAware ADS-B
Thu 06:10:51 AM -23.4390 -46.7000 139° Southeast 239 275 5,500 -1,000 Descending FlightAware ADS-B
Thu 06:11:17 AM -23.4550 -46.6750 125° Southeast 226 260 5,100 -840 Descending FlightAware ADS-B
Thu 06:11:41 AM -23.4660 -46.6510 117° Southeast 213 245 4,800 -667 Descending FlightAware ADS-B
Thu 06:12:02 AM -23.4710 -46.6380 113° Southeast 207 238 4,600 -600 Descending FlightAware ADS-B
Thu 06:12:11 AM -23.4740 -46.6230 102° East 194 223 4,500 -615 Descending FlightAware ADS-B
Thu 06:12:41 AM -23.4680 -46.5960 76° East 177 204 4,200 -724 Descending FlightAware ADS-B
Thu 06:13:09 AM -23.4620 -46.5720 75° East 167 192 3,800 -857 Descending FlightAware ADS-B
Thu 06:13:37 AM -23.4560 -46.5510 73° East 152 175 3,400 -857 Descending FlightAware ADS-B
Thu 06:14:05 AM -23.4510 -46.5310 75° East 150 173 3,000 -750 Descending FlightAware ADS-B
Thu 06:14:17 AM -23.4480 -46.5220 70° East 148 170 2,900 -750 Descending FlightAware ADS-B
Thu 06:14:45 AM -23.4430 -46.5020 75° East 142 163 2,500 -577 Descending FlightAware ADS-B
Thu 06:15:09 AM -23.4400 -46.4930 70° East 147 169 2,400 -250 Descending FlightAware ADS-B
Thu 06:15:41 AM -23.4340 -46.4690 75° East 76 87 -4,500 Descending FlightAware ADS-B
Thu 06:16:08 AM -23.4320 -46.4610 75° East 76 87  Level FlightAware ADS-B
Thu 06:17:06 AM -23.4280 -46.4620 347° North 12 14  Level FlightAware ADS-B

Login

Don't have an account? Register now (free) for customized features, flight alerts, and more!